Time;durP1;ratioP1;P1;durP2;ratioP2;P2;SDS_P1;SDS_P2;PMS_P1;PMS_P2;Temp;Humidity;BMP_temperature;BMP_pressure;BME280_temperature;BME280_humidity;BME280_pressure;Samples;Min_cycle;Max_cycle;Signal;HPM_P1;HPM_P2
2023/08/11 00:01:59;;;;;;;3.57;3.27;;;17.40;99.90;;;;;;5068815;28;20444;-81
2023/08/11 00:04:26;;;;;;;5.00;3.40;;;17.40;99.90;;;;;;5076562;28;20446;-81
2023/08/11 00:06:53;;;;;;;5.43;3.80;;;17.40;99.90;;;;;;5076199;28;20633;-81
2023/08/11 00:09:21;;;;;;;4.60;3.20;;;17.40;99.90;;;;;;5076210;28;20481;-82
2023/08/11 00:11:48;;;;;;;6.60;3.13;;;17.40;99.90;;;;;;5076515;28;20486;-81
2023/08/11 00:14:14;;;;;;;4.20;3.20;;;17.40;99.90;;;;;;5076361;28;20544;-81
2023/08/11 00:16:41;;;;;;;5.30;3.40;;;17.40;99.90;;;;;;5076591;28;20829;-82
2023/08/11 00:19:10;;;;;;;6.97;4.33;;;17.30;99.90;;;;;;5076461;28;20561;-82
2023/08/11 00:21:37;;;;;;;4.10;3.40;;;17.30;99.90;;;;;;5075311;28;20446;-81
2023/08/11 00:24:04;;;;;;;5.17;4.23;;;17.30;99.90;;;;;;5075490;28;20448;-82
2023/08/11 00:26:31;;;;;;;4.10;3.53;;;17.30;99.90;;;;;;5075693;28;20937;-81
2023/08/11 00:28:58;;;;;;;4.13;3.53;;;17.30;99.90;;;;;;5075127;28;20481;-82
2023/08/11 00:31:24;;;;;;;4.07;3.63;;;17.30;99.90;;;;;;5075384;28;21009;-81
2023/08/11 00:33:52;;;;;;;8.70;4.00;;;17.30;99.90;;;;;;5075919;28;20457;-82
2023/08/11 00:36:20;;;;;;;6.53;3.83;;;17.30;99.90;;;;;;5075409;28;20531;-81
2023/08/11 00:38:47;;;;;;;6.80;4.10;;;17.30;99.90;;;;;;5076187;28;20467;-84
2023/08/11 00:41:16;;;;;;;5.87;3.63;;;17.20;99.90;;;;;;5075775;28;20448;-81
2023/08/11 00:43:42;;;;;;;4.57;4.00;;;17.30;99.90;;;;;;5075818;28;20446;-82
2023/08/11 00:46:11;;;;;;;5.03;3.60;;;17.20;99.90;;;;;;5074940;28;20452;-81
2023/08/11 00:48:38;;;;;;;5.13;3.77;;;17.20;99.90;;;;;;5075241;28;20567;-82
2023/08/11 00:51:06;;;;;;;5.30;3.60;;;17.20;99.90;;;;;;5075273;28;20565;-81
2023/08/11 00:53:35;;;;;;;4.60;3.77;;;17.20;99.90;;;;;;5075812;28;20498;-81
2023/08/11 00:56:03;;;;;;;6.60;3.97;;;17.20;99.90;;;;;;5075814;28;20489;-81
2023/08/11 00:58:31;;;;;;;7.23;4.10;;;17.20;99.90;;;;;;5075344;28;20557;-82
2023/08/11 01:00:58;;;;;;;4.60;4.03;;;17.20;99.90;;;;;;5067119;28;20450;-81
2023/08/11 01:03:25;;;;;;;5.20;4.00;;;17.20;99.90;;;;;;5075049;28;20479;-83
2023/08/11 01:06:03;;;;;;;5.60;3.70;;;17.20;99.90;;;;;;5075431;28;20465;-81
2023/08/11 01:08:38;;;;;;;4.80;3.53;;;17.20;99.90;;;;;;5075243;28;20482;-81
2023/08/11 01:11:12;;;;;;;6.40;3.70;;;17.10;99.90;;;;;;5075560;28;20450;-82
2023/08/11 01:13:45;;;;;;;7.07;4.40;;;17.10;99.90;;;;;;5076256;28;20529;-81
2023/08/11 01:16:14;;;;;;;4.43;3.77;;;17.10;99.90;;;;;;5074847;28;20462;-81
2023/08/11 01:18:41;;;;;;;4.90;3.37;;;17.10;99.90;;;;;;5075186;28;20471;-83
2023/08/11 01:21:12;;;;;;;7.50;4.23;;;17.10;99.90;;;;;;5075144;28;20551;-84
2023/08/11 01:23:41;;;;;;;4.80;3.63;;;17.10;99.90;;;;;;5075224;28;20489;-83
2023/08/11 01:26:08;;;;;;;4.70;3.60;;;17.10;99.90;;;;;;5075557;28;20453;-84
2023/08/11 01:28:36;;;;;;;4.77;4.07;;;17.10;99.90;;;;;;5074954;28;20462;-83
2023/08/11 01:31:03;;;;;;;5.57;4.40;;;17.00;99.90;;;;;;5074987;28;20547;-85
2023/08/11 01:33:30;;;;;;;4.80;3.90;;;17.00;99.90;;;;;;5075370;28;20492;-84
2023/08/11 01:35:57;;;;;;;5.60;4.03;;;17.00;99.90;;;;;;5075747;28;20455;-84
2023/08/11 01:38:24;;;;;;;4.20;3.40;;;17.00;99.90;;;;;;5075338;28;20474;-83
2023/08/11 01:40:52;;;;;;;4.40;3.97;;;17.00;99.90;;;;;;5076009;28;20455;-85
2023/08/11 01:43:20;;;;;;;4.43;3.70;;;17.00;99.90;;;;;;5075691;28;20484;-82
2023/08/11 01:45:49;;;;;;;3.60;3.27;;;17.00;99.90;;;;;;5076064;28;20530;-84
2023/08/11 01:48:17;;;;;;;5.27;3.73;;;17.00;99.90;;;;;;5076268;28;20477;-84
2023/08/11 01:50:45;;;;;;;5.33;4.33;;;17.00;99.90;;;;;;5076300;28;20544;-83
2023/08/11 01:53:12;;;;;;;3.67;3.37;;;17.00;99.90;;;;;;5075917;28;20483;-84
2023/08/11 01:55:40;;;;;;;5.23;3.70;;;17.00;99.90;;;;;;5076788;28;20468;-83
2023/08/11 01:58:08;;;;;;;10.80;3.67;;;17.00;99.90;;;;;;5078700;28;20546;-83
2023/08/11 02:00:36;;;;;;;6.80;3.50;;;16.90;99.90;;;;;;5077980;28;20960;-83
2023/08/11 02:03:03;;;;;;;5.10;3.77;;;16.90;99.90;;;;;;5079124;28;20829;-83
2023/08/11 02:05:30;;;;;;;4.63;4.00;;;16.90;99.90;;;;;;5080836;28;20466;-82
2023/08/11 02:07:58;;;;;;;5.83;4.63;;;16.90;99.90;;;;;;5089198;28;20510;-82
2023/08/11 02:10:25;;;;;;;5.00;3.53;;;16.90;99.90;;;;;;5069099;28;20446;-82
2023/08/11 02:12:51;;;;;;;8.40;3.43;;;16.90;99.90;;;;;;5077132;28;20632;-83
2023/08/11 02:15:20;;;;;;;4.20;3.20;;;16.90;99.90;;;;;;5077538;28;20452;-83
2023/08/11 02:17:47;;;;;;;5.10;4.30;;;16.90;99.90;;;;;;5080715;28;20830;-83
2023/08/11 02:20:18;;;;;;;4.10;3.40;;;16.90;99.90;;;;;;5083472;28;20516;-82
2023/08/11 02:22:45;;;;;;;3.37;3.07;;;16.80;99.90;;;;;;5079562;28;21042;-82
2023/08/11 02:25:12;;;;;;;3.57;3.20;;;16.80;99.90;;;;;;5077666;28;20964;-80
2023/08/11 02:27:39;;;;;;;5.27;3.50;;;16.80;99.90;;;;;;5077802;28;20459;-82
2023/08/11 02:30:08;;;;;;;7.00;3.90;;;16.80;99.90;;;;;;5076901;28;20458;-83
2023/08/11 02:32:37;;;;;;;4.50;3.40;;;16.80;99.90;;;;;;5077243;28;20930;-83
2023/08/11 02:35:05;;;;;;;6.20;3.70;;;16.80;99.90;;;;;;5077202;28;20563;-82
2023/08/11 02:37:32;;;;;;;5.30;3.80;;;16.80;99.90;;;;;;5076329;28;20451;-83
2023/08/11 02:39:59;;;;;;;4.33;3.20;;;16.80;99.90;;;;;;5076997;28;20503;-83
2023/08/11 02:42:26;;;;;;;4.90;3.60;;;16.80;99.90;;;;;;5077212;28;20828;-80
2023/08/11 02:44:53;;;;;;;4.60;3.17;;;16.70;99.90;;;;;;5077511;28;20850;-82
2023/08/11 02:47:20;;;;;;;5.13;3.53;;;16.70;99.90;;;;;;5076783;28;20860;-83
2023/08/11 02:49:48;;;;;;;3.80;3.23;;;16.70;99.90;;;;;;5076341;28;20499;-82
2023/08/11 02:52:15;;;;;;;3.53;3.13;;;16.70;99.90;;;;;;5077344;28;20454;-82
2023/08/11 02:54:42;;;;;;;6.73;3.30;;;16.70;99.90;;;;;;5077156;28;20462;-81
2023/08/11 02:57:09;;;;;;;3.80;3.37;;;16.70;99.90;;;;;;5077058;28;20457;-82
2023/08/11 02:59:35;;;;;;;7.00;4.70;;;16.70;99.90;;;;;;5077319;28;20495;-82
2023/08/11 03:02:02;;;;;;;4.60;3.50;;;16.60;99.90;;;;;;5077154;28;20451;-82
2023/08/11 03:04:29;;;;;;;3.90;3.30;;;16.60;99.90;;;;;;5076829;28;20458;-82
2023/08/11 03:06:57;;;;;;;5.20;3.53;;;16.60;99.90;;;;;;5076213;28;20453;-83
2023/08/11 03:09:24;;;;;;;4.97;3.80;;;16.60;99.90;;;;;;5075867;28;20464;-82
2023/08/11 03:11:51;;;;;;;4.57;3.70;;;16.60;99.90;;;;;;5076715;28;20452;-83
2023/08/11 03:14:18;;;;;;;4.13;3.70;;;16.60;99.90;;;;;;5076574;28;20861;-82
2023/08/11 03:16:45;;;;;;;5.23;3.63;;;16.60;99.90;;;;;;5076735;28;20448;-82
2023/08/11 03:19:12;;;;;;;3.50;3.20;;;16.60;99.90;;;;;;5076137;28;20486;-82
2023/08/11 03:21:38;;;;;;;7.93;3.73;;;16.60;99.90;;;;;;5077066;28;20455;-82
2023/08/11 03:24:07;;;;;;;6.80;3.87;;;16.60;99.90;;;;;;5076595;28;20461;-82
2023/08/11 03:26:34;;;;;;;6.00;4.30;;;16.60;99.90;;;;;;5075312;28;20932;-82
2023/08/11 03:29:01;;;;;;;3.83;3.20;;;16.60;99.90;;;;;;5076364;28;20466;-82
2023/08/11 03:31:27;;;;;;;7.03;4.77;;;16.60;99.90;;;;;;5076829;28;20823;-82
2023/08/11 03:33:54;;;;;;;6.17;3.70;;;16.50;99.90;;;;;;5076659;28;20489;-82
2023/08/11 03:36:21;;;;;;;5.93;3.87;;;16.50;99.90;;;;;;5077228;28;20939;-82
2023/08/11 03:38:49;;;;;;;5.00;3.50;;;16.50;99.90;;;;;;5076486;28;21082;-82
2023/08/11 03:41:17;;;;;;;5.80;3.50;;;16.50;99.90;;;;;;5076640;28;20457;-82
2023/08/11 03:43:44;;;;;;;4.70;3.43;;;16.50;99.90;;;;;;5076768;28;20447;-82
2023/08/11 03:46:10;;;;;;;6.97;3.77;;;16.50;99.90;;;;;;5077331;28;20982;-82
2023/08/11 03:48:37;;;;;;;5.50;3.40;;;16.40;99.90;;;;;;5077359;28;20485;-82
2023/08/11 03:51:04;;;;;;;8.93;3.80;;;16.40;99.90;;;;;;5077752;28;20444;-82
2023/08/11 03:53:31;;;;;;;5.27;3.37;;;16.50;99.90;;;;;;5077584;28;20529;-82
2023/08/11 03:55:58;;;;;;;5.90;3.30;;;16.40;99.90;;;;;;5076859;28;20442;-83
2023/08/11 03:58:26;;;;;;;3.80;3.30;;;16.40;99.90;;;;;;5077413;28;20589;-83
2023/08/11 04:00:55;;;;;;;4.90;3.57;;;16.40;99.90;;;;;;5077946;28;20454;-83
2023/08/11 04:03:23;;;;;;;5.20;3.10;;;16.40;99.90;;;;;;5077791;28;20978;-82
2023/08/11 04:05:49;;;;;;;5.47;3.27;;;16.40;99.90;;;;;;5077314;28;20505;-83
2023/08/11 04:08:16;;;;;;;5.00;3.83;;;16.40;99.90;;;;;;5077921;28;20487;-83
2023/08/11 04:10:43;;;;;;;6.53;3.63;;;16.40;99.90;;;;;;5078485;28;20443;-83
2023/08/11 04:13:10;;;;;;;6.87;2.93;;;16.40;99.90;;;;;;5078649;28;20490;-83
2023/08/11 04:15:39;;;;;;;5.23;3.90;;;16.40;99.90;;;;;;5078552;28;20455;-83
2023/08/11 04:18:10;;;;;;;5.27;2.67;;;16.40;99.90;;;;;;5089007;28;20486;-83
2023/08/11 04:20:36;;;;;;;6.03;3.50;;;16.40;99.90;;;;;;5082335;28;20450;-82
2023/08/11 04:23:04;;;;;;;7.57;4.10;;;16.40;99.90;;;;;;5075600;28;20442;-82
2023/08/11 04:25:31;;;;;;;5.10;3.00;;;16.30;99.90;;;;;;5063487;28;20913;-82
2023/08/11 04:27:59;;;;;;;4.50;3.40;;;16.30;99.90;;;;;;5074190;28;20470;-82
2023/08/11 04:30:26;;;;;;;4.80;3.30;;;16.30;99.90;;;;;;5075808;28;20482;-83
2023/08/11 04:32:55;;;;;;;7.37;3.10;;;16.30;99.90;;;;;;5076457;28;20887;-83
2023/08/11 04:35:22;;;;;;;8.13;3.10;;;16.30;99.90;;;;;;5075478;28;20957;-83
2023/08/11 04:37:51;;;;;;;6.07;3.80;;;16.30;99.90;;;;;;5075717;28;20474;-82
2023/08/11 04:40:18;;;;;;;5.20;3.27;;;16.40;99.90;;;;;;5075829;28;20835;-82
2023/08/11 04:42:45;;;;;;;6.20;4.00;;;16.40;99.90;;;;;;5075816;28;20905;-82
2023/08/11 04:45:12;;;;;;;4.83;3.37;;;16.30;99.90;;;;;;5076201;28;20455;-80
2023/08/11 04:47:40;;;;;;;4.53;3.30;;;16.40;99.90;;;;;;5076032;28;20509;-81
2023/08/11 04:50:09;;;;;;;3.80;3.17;;;16.40;99.90;;;;;;5075208;28;20486;-83
2023/08/11 04:52:39;;;;;;;7.43;3.87;;;16.40;99.90;;;;;;5075257;28;20484;-82
2023/08/11 04:55:07;;;;;;;6.03;4.40;;;16.40;99.90;;;;;;5067139;28;20505;-80
2023/08/11 04:57:34;;;;;;;7.60;3.90;;;16.40;99.90;;;;;;5067988;28;20499;-83
2023/08/11 05:00:01;;;;;;;5.77;3.43;;;16.40;99.90;;;;;;5075589;28;20803;-82
2023/08/11 05:02:28;;;;;;;4.57;3.67;;;16.50;99.90;;;;;;5071419;28;20460;-82
2023/08/11 05:04:55;;;;;;;7.03;3.77;;;16.50;99.90;;;;;;5074532;28;20452;-83
2023/08/11 05:07:23;;;;;;;5.50;3.70;;;16.50;99.90;;;;;;5069702;28;20451;-83
2023/08/11 05:09:50;;;;;;;6.57;4.40;;;16.50;99.90;;;;;;5075528;28;20477;-83
2023/08/11 05:12:17;;;;;;;5.00;3.70;;;16.60;99.90;;;;;;5069102;28;20494;-82
2023/08/11 05:14:44;;;;;;;5.87;4.67;;;16.60;99.90;;;;;;5074933;28;20555;-83
2023/08/11 05:17:10;;;;;;;6.83;4.53;;;16.60;99.90;;;;;;5076570;28;21019;-82
2023/08/11 05:19:37;;;;;;;5.47;4.67;;;16.60;99.90;;;;;;5079635;22;20504;-83
2023/08/11 05:22:04;;;;;;;6.23;4.60;;;16.70;99.90;;;;;;5055074;28;20455;-81
2023/08/11 05:24:32;;;;;;;5.67;4.23;;;16.70;99.90;;;;;;5055473;28;20829;-84
2023/08/11 05:26:59;;;;;;;5.60;4.30;;;16.80;99.90;;;;;;5055498;28;20439;-83
2023/08/11 05:29:26;;;;;;;5.63;4.63;;;16.80;99.90;;;;;;5055119;28;20468;-83
2023/08/11 05:31:53;;;;;;;4.73;3.57;;;16.80;99.90;;;;;;5058239;28;20441;-80
2023/08/11 05:34:20;;;;;;;5.90;3.90;;;16.80;99.90;;;;;;5060543;28;20484;-84
2023/08/11 05:36:46;;;;;;;4.73;4.03;;;16.90;99.90;;;;;;5058512;28;20460;-83
2023/08/11 05:39:13;;;;;;;4.70;3.17;;;16.90;99.90;;;;;;5057681;28;20515;-82
2023/08/11 05:41:41;;;;;;;5.20;4.20;;;17.00;99.90;;;;;;5056467;28;20832;-82
2023/08/11 05:44:08;;;;;;;4.93;3.67;;;17.00;99.90;;;;;;5056761;28;20456;-84
2023/08/11 05:46:35;;;;;;;5.80;3.40;;;17.10;99.90;;;;;;5055730;28;20466;-82
2023/08/11 05:49:02;;;;;;;4.80;2.90;;;17.10;99.90;;;;;;5055539;28;20472;-81
2023/08/11 05:51:29;;;;;;;6.30;4.07;;;17.20;99.90;;;;;;5059006;28;20553;-81
2023/08/11 05:53:56;;;;;;;5.13;3.17;;;17.20;99.90;;;;;;5060054;28;20513;-83
2023/08/11 05:56:23;;;;;;;6.93;3.90;;;17.30;99.90;;;;;;5060384;28;20537;-83
2023/08/11 05:58:51;;;;;;;5.60;3.40;;;17.30;99.90;;;;;;5060351;28;20474;-82
2023/08/11 06:01:18;;;;;;;6.60;3.27;;;17.30;99.90;;;;;;5044010;28;20526;-80
2023/08/11 06:03:45;;;;;;;3.70;3.23;;;17.40;99.90;;;;;;5039802;28;20463;-84
2023/08/11 06:06:12;;;;;;;4.40;3.10;;;17.40;99.90;;;;;;5040896;28;20869;-81
2023/08/11 06:08:39;;;;;;;6.90;3.40;;;17.40;99.90;;;;;;5039590;28;20498;-84
2023/08/11 06:11:06;;;;;;;4.43;2.90;;;17.50;99.90;;;;;;5039699;28;20508;-82
2023/08/11 06:13:33;;;;;;;5.17;3.07;;;17.50;99.90;;;;;;5039933;28;20495;-82
2023/08/11 06:16:01;;;;;;;5.80;3.40;;;17.60;99.90;;;;;;5039822;28;20528;-83
2023/08/11 06:18:28;;;;;;;3.67;2.87;;;17.70;99.90;;;;;;5053281;28;20892;-81
2023/08/11 06:20:55;;;;;;;9.00;3.40;;;17.70;99.90;;;;;;5059203;28;20439;-82
2023/08/11 06:23:22;;;;;;;7.40;3.47;;;17.80;99.90;;;;;;5058944;28;20541;-82
2023/08/11 06:25:49;;;;;;;6.70;3.10;;;17.80;99.90;;;;;;5058454;28;20455;-83
2023/08/11 06:28:16;;;;;;;5.30;3.30;;;17.80;99.90;;;;;;5058097;28;20494;-81
2023/08/11 06:30:43;;;;;;;7.93;3.90;;;17.90;99.90;;;;;;5059077;28;20462;-81
2023/08/11 06:33:11;;;;;;;7.47;4.07;;;17.90;99.90;;;;;;5053299;28;20486;-83
2023/08/11 06:35:38;;;;;;;8.57;4.40;;;18.00;99.90;;;;;;5042453;28;20447;-83
2023/08/11 06:38:05;;;;;;;14.00;4.57;;;18.00;99.90;;;;;;5051680;28;20856;-82
2023/08/11 06:40:32;;;;;;;9.83;3.50;;;18.10;99.90;;;;;;5047031;28;20456;-81
2023/08/11 06:42:59;;;;;;;5.50;3.10;;;18.10;99.90;;;;;;5044687;28;20511;-82
2023/08/11 06:45:25;;;;;;;6.23;3.70;;;18.20;99.90;;;;;;5052525;28;20525;-83
2023/08/11 06:47:54;;;;;;;8.80;3.57;;;18.30;99.90;;;;;;5043840;28;20918;-81
2023/08/11 06:50:23;;;;;;;4.00;2.97;;;18.30;99.90;;;;;;5045909;28;20467;-83
2023/08/11 06:52:49;;;;;;;5.90;3.60;;;18.30;99.90;;;;;;5043373;28;20475;-82
2023/08/11 06:55:16;;;;;;;9.63;3.80;;;18.40;99.90;;;;;;5051193;28;20489;-82
2023/08/11 06:57:43;;;;;;;7.80;3.13;;;18.50;99.90;;;;;;5050615;28;20562;-84
2023/08/11 07:00:11;;;;;;;7.17;3.87;;;18.50;99.90;;;;;;5039280;28;20467;-82
2023/08/11 07:02:38;;;;;;;5.63;3.47;;;18.60;99.90;;;;;;5039439;28;20535;-83
2023/08/11 07:05:05;;;;;;;4.90;2.33;;;18.60;99.90;;;;;;5040339;28;20548;-85
2023/08/11 07:07:34;;;;;;;5.83;3.43;;;18.70;50.70;;;;;;5040365;28;20483;-81
2023/08/11 07:10:01;;;;;;;3.07;2.73;;;18.80;56.10;;;;;;5060089;28;20543;-83
2023/08/11 07:12:27;;;;;;;4.67;2.50;;;18.80;37.90;;;;;;5054353;28;20482;-82
2023/08/11 07:14:54;;;;;;;5.23;2.40;;;18.90;8.00;;;;;;5042516;28;20495;-83
2023/08/11 07:17:23;;;;;;;3.43;2.40;;;19.00;1.00;;;;;;5042182;28;20445;-84
2023/08/11 07:19:49;;;;;;;3.43;2.23;;;19.10;1.00;;;;;;5047165;28;20483;-85
2023/08/11 07:22:17;;;;;;;4.13;2.23;;;19.10;1.00;;;;;;5059891;28;20450;-83
2023/08/11 07:24:45;;;;;;;3.90;2.40;;;19.20;1.00;;;;;;5060820;28;20471;-83
2023/08/11 07:27:12;;;;;;;3.17;2.50;;;19.30;1.00;;;;;;5056815;28;20448;-83
2023/08/11 07:29:39;;;;;;;5.93;2.40;;;19.40;1.00;;;;;;5044933;28;20469;-86
2023/08/11 07:32:06;;;;;;;5.83;2.47;;;19.50;1.00;;;;;;5052916;28;20455;-83
2023/08/11 07:34:33;;;;;;;4.73;2.80;;;19.60;99.90;;;;;;5053117;28;20556;-82
2023/08/11 07:37:00;;;;;;;3.27;2.23;;;19.60;1.00;;;;;;5053332;28;20499;-81
2023/08/11 07:39:26;;;;;;;3.20;2.30;;;19.70;99.90;;;;;;5054156;28;20511;-82
2023/08/11 07:41:56;;;;;;;3.10;2.00;;;19.80;1.00;;;;;;5053902;28;20480;-79
2023/08/11 07:44:22;;;;;;;4.70;2.17;;;19.80;99.90;;;;;;5043527;28;20441;-82
2023/08/11 07:46:49;;;;;;;3.97;2.30;;;19.90;99.90;;;;;;5058007;28;20456;-81
2023/08/11 07:49:16;;;;;;;7.73;2.70;;;20.00;22.00;;;;;;5058815;28;20482;-83
2023/08/11 07:51:44;;;;;;;3.07;2.43;;;20.10;99.90;;;;;;5058371;28;20948;-85
2023/08/11 07:54:11;;;;;;;3.17;1.80;;;20.20;1.00;;;;;;5057699;28;21090;-82
2023/08/11 07:56:37;;;;;;;3.20;2.23;;;20.30;1.00;;;;;;5056891;28;20490;-83
2023/08/11 07:59:06;;;;;;;4.20;2.27;;;20.40;1.00;;;;;;5045333;28;20816;-82
2023/08/11 08:01:33;;;;;;;3.70;2.43;;;20.50;1.00;;;;;;5048146;28;20968;-82
2023/08/11 08:04:00;;;;;;;6.60;2.33;;;20.60;1.00;;;;;;5047439;28;20851;-81
2023/08/11 08:06:26;;;;;;;3.93;2.40;;;20.70;1.00;;;;;;5052210;28;20475;-83
2023/08/11 08:08:53;;;;;;;3.23;2.40;;;20.80;1.00;;;;;;5054178;28;20451;-86
2023/08/11 08:11:23;;;;;;;2.83;2.33;;;20.90;1.00;;;;;;5048421;28;20448;-82
2023/08/11 08:13:50;;;;;;;3.67;2.40;;;21.00;99.90;;;;;;5041879;28;20510;-82
2023/08/11 08:16:18;;;;;;;3.30;2.13;;;21.10;1.00;;;;;;5039119;28;20547;-81
2023/08/11 08:18:46;;;;;;;3.93;2.33;;;21.20;1.00;;;;;;5043775;28;20478;-83
2023/08/11 08:21:13;;;;;;;3.90;2.57;;;21.30;1.00;;;;;;5044877;28;20528;-83
2023/08/11 08:23:39;;;;;;;3.17;2.10;;;21.40;94.00;;;;;;5040824;28;20444;-82
2023/08/11 08:26:10;;;;;;;3.33;2.27;;;21.40;99.90;;;;;;5043023;28;20445;-81
2023/08/11 08:28:37;;;;;;;3.10;1.77;;;21.60;1.00;;;;;;5048832;28;20467;-82
2023/08/11 08:31:03;;;;;;;3.40;2.40;;;21.60;99.90;;;;;;5040186;28;20933;-82
2023/08/11 08:33:32;;;;;;;4.40;1.97;;;21.70;1.00;;;;;;5043434;28;20534;-81
2023/08/11 08:35:58;;;;;;;3.57;2.43;;;21.80;99.90;;;;;;5047229;28;20495;-81
2023/08/11 08:38:25;;;;;;;4.63;2.10;;;21.90;99.90;;;;;;5050872;28;20452;-83
2023/08/11 08:40:55;;;;;;;3.20;2.20;;;22.10;99.90;;;;;;5040561;28;20445;-81
2023/08/11 08:43:22;;;;;;;4.43;2.57;;;22.20;1.00;;;;;;5046521;28;20886;-82
2023/08/11 08:45:51;;;;;;;3.23;2.03;;;22.30;99.90;;;;;;5047059;28;20489;-82
2023/08/11 08:48:29;;;;;;;3.47;2.03;;;22.50;99.90;;;;;;5046214;28;20440;-83
2023/08/11 08:50:59;;;;;;;3.20;2.30;;;22.60;99.90;;;;;;5042090;28;20520;-84
2023/08/11 08:53:27;;;;;;;3.10;2.30;;;22.80;99.90;;;;;;5045250;28;20539;-83
2023/08/11 08:55:54;;;;;;;3.23;2.20;;;22.90;1.00;;;;;;5048672;28;20492;-86
2023/08/11 08:58:21;;;;;;;2.50;1.97;;;23.00;99.90;;;;;;5052260;28;20535;-83
2023/08/11 09:00:50;;;;;;;5.57;2.23;;;23.20;99.90;;;;;;5059711;28;20747;-83
2023/08/11 09:03:17;;;;;;;6.00;2.70;;;23.30;36.60;;;;;;5053911;28;21020;-82
2023/08/11 09:05:44;;;;;;;4.57;2.00;;;23.40;1.00;;;;;;5059014;28;20458;-83
2023/08/11 09:08:13;;;;;;;4.23;2.80;;;23.60;39.90;;;;;;5059167;28;20526;-83
2023/08/11 09:10:39;;;;;;;3.33;2.23;;;23.70;99.90;;;;;;5059000;28;20503;-82
2023/08/11 09:13:06;;;;;;;4.63;2.20;;;23.80;1.00;;;;;;5049628;28;20803;-83
2023/08/11 09:15:34;;;;;;;3.40;2.47;;;24.00;1.00;;;;;;5037251;28;20527;-83
2023/08/11 09:18:01;;;;;;;4.40;2.70;;;24.10;1.00;;;;;;5037604;28;21055;-83
2023/08/11 09:20:28;;;;;;;3.80;2.10;;;24.20;1.00;;;;;;5036843;28;20472;-82
2023/08/11 09:22:56;;;;;;;5.23;2.00;;;24.30;1.00;;;;;;5040913;28;20542;-82
2023/08/11 09:25:24;;;;;;;3.43;2.00;;;24.50;1.00;;;;;;5041918;28;20483;-84
2023/08/11 09:27:51;;;;;;;3.70;2.03;;;24.60;1.00;;;;;;5041600;28;20457;-83
2023/08/11 09:30:18;;;;;;;4.00;2.07;;;24.70;1.00;;;;;;5044502;28;20468;-86
2023/08/11 09:32:48;;;;;;;2.80;1.80;;;24.80;1.00;;;;;;5055634;28;20448;-84
2023/08/11 09:35:15;;;;;;;4.10;2.37;;;24.90;1.00;;;;;;5055380;28;20488;-85
2023/08/11 09:37:43;;;;;;;3.07;1.83;;;25.00;1.00;;;;;;5055165;28;20456;-83
2023/08/11 09:40:12;;;;;;;2.87;1.97;;;25.00;1.00;;;;;;5054182;28;20479;-82
2023/08/11 09:42:42;;;;;;;3.17;1.90;;;25.20;1.00;;;;;;5054525;28;20539;-82
2023/08/11 09:45:09;;;;;;;3.00;2.17;;;25.30;1.00;;;;;;5054317;28;20459;-83
2023/08/11 09:47:36;;;;;;;6.10;2.00;;;25.60;1.00;;;;;;5054832;28;20462;-82
2023/08/11 09:50:03;;;;;;;2.70;1.90;;;25.70;1.00;;;;;;5054912;28;21015;-82
2023/08/11 09:52:32;;;;;;;3.30;2.10;;;26.00;1.00;;;;;;5054840;28;20517;-81
2023/08/11 09:54:59;;;;;;;4.10;1.97;;;26.20;1.00;;;;;;5037590;28;20568;-83
2023/08/11 09:57:27;;;;;;;5.03;2.37;;;26.40;1.00;;;;;;5034639;28;20528;-82
2023/08/11 09:59:58;;;;;;;3.30;2.10;;;26.60;1.00;;;;;;5035942;28;20476;-83
2023/08/11 10:02:29;;;;;;;3.43;1.90;;;26.90;1.00;;;;;;5050865;28;20448;-83
2023/08/11 10:04:59;;;;;;;3.27;1.90;;;27.10;1.00;;;;;;5046186;28;20528;-84
2023/08/11 10:07:33;;;;;;;4.83;2.10;;;27.30;1.00;;;;;;5045294;28;20507;-83
2023/08/11 10:10:02;;;;;;;3.87;1.90;;;27.50;1.00;;;;;;5044385;28;20508;-84
2023/08/11 10:12:30;;;;;;;5.87;2.50;;;27.60;1.00;;;;;;5036798;28;20457;-83
2023/08/11 10:14:59;;;;;;;3.20;1.83;;;27.70;1.00;;;;;;5054377;28;20511;-83
2023/08/11 10:17:26;;;;;;;4.13;2.40;;;27.90;1.00;;;;;;5058103;28;20516;-85
2023/08/11 10:19:53;;;;;;;3.70;2.30;;;28.00;1.00;;;;;;5040257;28;20473;-85
2023/08/11 10:22:21;;;;;;;4.70;1.70;;;28.10;1.00;;;;;;5036526;28;20437;-83
2023/08/11 10:24:48;;;;;;;3.20;2.17;;;28.30;1.00;;;;;;5037426;28;20444;-83
2023/08/11 10:27:16;;;;;;;4.83;1.97;;;28.20;1.00;;;;;;5033967;28;20543;-83
2023/08/11 10:29:47;;;;;;;7.20;2.90;;;28.40;1.00;;;;;;5035678;28;21012;-84
2023/08/11 10:32:16;;;;;;;3.40;1.90;;;28.50;1.00;;;;;;5036100;28;20806;-82
2023/08/11 10:34:43;;;;;;;3.50;2.13;;;28.70;1.00;;;;;;5040863;28;20996;-83
2023/08/11 10:37:09;;;;;;;4.50;2.80;;;28.80;1.00;;;;;;5043253;28;20447;-86
2023/08/11 10:39:40;;;;;;;4.33;2.53;;;29.00;1.00;;;;;;5061699;28;21051;-86
2023/08/11 10:42:12;;;;;;;3.67;2.13;;;29.00;1.00;;;;;;5061309;28;20551;-85
2023/08/11 10:44:44;;;;;;;5.00;2.50;;;29.20;1.00;;;;;;5060922;28;20454;-85
2023/08/11 10:47:12;;;;;;;4.90;2.50;;;29.30;1.00;;;;;;5060203;28;20466;-85
2023/08/11 10:49:43;;;;;;;4.23;2.20;;;29.50;1.00;;;;;;5054278;28;20471;-83
2023/08/11 10:55:17;;;;;;;3.60;2.33;;;29.70;1.00;;;;;;5038352;28;20543;-83
2023/08/11 11:01:07;;;;;;;4.00;2.63;;;30.10;1.00;;;;;;5181440;22;20499;-84
2023/08/11 11:03:45;;;;;;;2.83;1.87;;;30.30;1.00;;;;;;5050852;28;20432;-84
2023/08/11 11:06:24;;;;;;;4.17;2.20;;;30.40;1.00;;;;;;5050046;28;20974;-83
2023/08/11 11:08:56;;;;;;;3.90;2.00;;;30.50;1.00;;;;;;5058468;28;20894;-83
2023/08/11 11:11:28;;;;;;;2.87;2.13;;;30.50;1.00;;;;;;5057136;28;20447;-83
2023/08/11 11:14:04;;;;;;;4.63;2.43;;;30.70;1.00;;;;;;5054062;28;20480;-84
2023/08/11 11:16:34;;;;;;;6.60;2.97;;;30.80;1.00;;;;;;5037843;28;20519;-84
2023/08/11 11:19:01;;;;;;;3.73;2.10;;;30.90;1.00;;;;;;5054066;22;20485;-80
2023/08/11 11:21:30;;;;;;;3.60;2.17;;;31.00;1.00;;;;;;5056213;28;20444;-81
2023/08/11 11:24:00;;;;;;;3.70;2.30;;;31.10;1.00;;;;;;5056876;28;20442;-82
2023/08/11 11:26:28;;;;;;;4.17;2.40;;;31.20;1.00;;;;;;5056930;28;20440;-84
2023/08/11 11:28:56;;;;;;;5.37;2.47;;;31.20;1.00;;;;;;5057557;28;20454;-81
2023/08/11 11:31:24;;;;;;;3.90;2.13;;;31.30;1.00;;;;;;5057351;28;20882;-83
2023/08/11 11:33:51;;;;;;;4.00;2.30;;;31.50;1.00;;;;;;5058225;28;20543;-83
2023/08/11 11:36:19;;;;;;;3.37;2.20;;;31.40;99.90;;;;;;5058192;28;20556;-83
2023/08/11 11:38:49;;;;;;;7.00;3.00;;;31.50;1.00;;;;;;5057151;28;20459;-83
2023/08/11 11:41:18;;;;;;;3.23;2.23;;;31.70;1.00;;;;;;5057892;28;20558;-84
2023/08/11 11:43:46;;;;;;;4.00;2.40;;;31.70;1.00;;;;;;5057841;28;20451;-83
2023/08/11 11:46:15;;;;;;;3.70;2.03;;;31.60;1.00;;;;;;5057972;28;20451;-82
2023/08/11 11:48:44;;;;;;;3.43;2.20;;;31.60;1.00;;;;;;5057364;28;20465;-83
2023/08/11 11:51:14;;;;;;;3.40;2.10;;;31.70;1.00;;;;;;5057903;28;20452;-81
2023/08/11 11:53:41;;;;;;;3.00;2.10;;;31.70;99.90;;;;;;5058311;28;20440;-84
2023/08/11 11:56:13;;;;;;;3.93;2.40;;;31.70;99.90;;;;;;5057528;28;21011;-83
2023/08/11 11:58:40;;;;;;;3.37;2.23;;;31.80;99.90;;;;;;5057592;28;20515;-82
2023/08/11 12:01:11;;;;;;;8.03;2.63;;;31.80;99.90;;;;;;5058096;28;20502;-85
2023/08/11 12:03:38;;;;;;;4.80;2.07;;;32.20;99.90;;;;;;5046214;28;20971;-82
2023/08/11 12:06:06;;;;;;;3.53;2.60;;;32.40;99.90;;;;;;5058006;28;20487;-82
2023/08/11 12:08:34;;;;;;;3.40;2.20;;;32.40;99.90;;;;;;5055974;28;20559;-82
2023/08/11 12:11:01;;;;;;;4.37;2.43;;;32.50;99.90;;;;;;5054651;28;20479;-83
2023/08/11 12:13:30;;;;;;;2.83;2.07;;;32.60;99.90;;;;;;5045004;28;20476;-82
2023/08/11 12:15:57;;;;;;;3.17;2.10;;;32.80;99.90;;;;;;5040665;28;20572;-83
2023/08/11 12:18:31;;;;;;;3.23;2.30;;;32.90;99.90;;;;;;5057952;28;20455;-83
2023/08/11 12:20:59;;;;;;;6.43;2.43;;;32.80;99.90;;;;;;5054515;28;20533;-83
2023/08/11 12:23:27;;;;;;;2.53;1.77;;;32.90;99.90;;;;;;5057266;28;20885;-83
2023/08/11 12:25:55;;;;;;;2.90;2.27;;;33.10;99.90;;;;;;5051488;28;20528;-83
2023/08/11 12:28:22;;;;;;;2.77;1.87;;;33.10;99.90;;;;;;5043904;28;20452;-84
2023/08/11 12:30:51;;;;;;;3.50;2.17;;;33.10;99.90;;;;;;5064343;28;20484;-82
2023/08/11 12:33:18;;;;;;;2.83;2.10;;;33.10;99.90;;;;;;5069309;28;20480;-81
2023/08/11 12:35:46;;;;;;;4.20;2.70;;;33.10;99.90;;;;;;5070073;28;20526;-81
2023/08/11 12:38:13;;;;;;;4.47;2.60;;;33.30;99.90;;;;;;5056971;28;20484;-82
2023/08/11 12:40:41;;;;;;;3.20;1.97;;;33.20;99.90;;;;;;5055497;28;20471;-81
2023/08/11 12:43:09;;;;;;;5.33;2.20;;;33.20;99.90;;;;;;5054953;28;20483;-82
2023/08/11 12:45:36;;;;;;;3.83;2.20;;;33.10;99.90;;;;;;5055401;28;20494;-81
2023/08/11 12:48:05;;;;;;;4.83;2.63;;;33.10;99.90;;;;;;5056012;28;20539;-80
2023/08/11 12:50:31;;;;;;;3.60;2.50;;;32.90;99.90;;;;;;5056319;28;20979;-79
2023/08/11 12:52:59;;;;;;;3.60;2.77;;;33.10;99.90;;;;;;5055693;28;20452;-80
2023/08/11 12:55:27;;;;;;;3.43;2.23;;;33.00;99.90;;;;;;5056171;28;20451;-81
2023/08/11 12:57:53;;;;;;;4.60;2.40;;;33.10;99.90;;;;;;5056406;28;20448;-81
2023/08/11 13:00:21;;;;;;;5.23;2.83;;;33.20;99.90;;;;;;5055060;28;20551;-80